sensor_id;sensor_type;location;lat;lon;timestamp;pressure;altitude;pressure_sealevel;temperature;humidity
41102;BME280;26845;50.190;19.178;2023-06-10T00:02:09;98355.14;;;16.71;93.54
41102;BME280;26845;50.190;19.178;2023-06-10T00:04:52;98351.85;;;16.71;93.77
41102;BME280;26845;50.190;19.178;2023-06-10T00:07:39;98349.73;;;16.72;93.91
41102;BME280;26845;50.190;19.178;2023-06-10T00:10:10;98349.92;;;16.74;93.78
41102;BME280;26845;50.190;19.178;2023-06-10T00:12:56;98352.00;;;16.76;93.94
41102;BME280;26845;50.190;19.178;2023-06-10T00:15:30;98355.11;;;16.79;93.97
41102;BME280;26845;50.190;19.178;2023-06-10T00:18:34;98358.29;;;16.81;93.89
41102;BME280;26845;50.190;19.178;2023-06-10T00:21:24;98361.97;;;16.81;93.66
41102;BME280;26845;50.190;19.178;2023-06-10T00:23:53;98359.23;;;16.80;93.61
41102;BME280;26845;50.190;19.178;2023-06-10T00:26:59;98355.22;;;16.80;93.62
41102;BME280;26845;50.190;19.178;2023-06-10T00:29:49;98355.59;;;16.79;93.55
41102;BME280;26845;50.190;19.178;2023-06-10T00:32:18;98359.44;;;16.79;93.51
41102;BME280;26845;50.190;19.178;2023-06-10T00:35:23;98361.33;;;16.77;93.43
41102;BME280;26845;50.190;19.178;2023-06-10T00:38:29;98360.60;;;16.76;93.37
41102;BME280;26845;50.190;19.178;2023-06-10T00:41:16;98359.40;;;16.76;93.34
41102;BME280;26845;50.190;19.178;2023-06-10T00:44:22;98362.38;;;16.77;93.45
41102;BME280;26845;50.190;19.178;2023-06-10T00:47:28;98368.79;;;16.77;93.34
41102;BME280;26845;50.190;19.178;2023-06-10T00:50:45;98377.16;;;16.73;93.09
41102;BME280;26845;50.190;19.178;2023-06-10T00:53:32;98378.50;;;16.65;92.99
41102;BME280;26845;50.190;19.178;2023-06-10T00:56:37;98381.64;;;16.62;93.50
41102;BME280;26845;50.190;19.178;2023-06-10T00:59:23;98382.62;;;16.62;93.63
41102;BME280;26845;50.190;19.178;2023-06-10T01:02:11;98386.73;;;16.64;93.55
41102;BME280;26845;50.190;19.178;2023-06-10T01:04:59;98384.83;;;16.61;93.66
41102;BME280;26845;50.190;19.178;2023-06-10T01:08:09;98382.67;;;16.61;93.64
41102;BME280;26845;50.190;19.178;2023-06-10T01:11:02;98379.74;;;16.62;93.83
41102;BME280;26845;50.190;19.178;2023-06-10T01:14:07;98382.45;;;16.65;93.89
41102;BME280;26845;50.190;19.178;2023-06-10T01:16:45;98380.59;;;16.69;94.03
41102;BME280;26845;50.190;19.178;2023-06-10T01:19:33;98379.64;;;16.69;93.96
41102;BME280;26845;50.190;19.178;2023-06-10T01:22:38;98378.33;;;16.71;94.21
41102;BME280;26845;50.190;19.178;2023-06-10T01:25:24;98377.50;;;16.76;94.17
41102;BME280;26845;50.190;19.178;2023-06-10T01:28:19;98381.21;;;16.78;94.15
41102;BME280;26845;50.190;19.178;2023-06-10T01:34:19;98382.30;;;16.79;94.09
41102;BME280;26845;50.190;19.178;2023-06-10T01:37:25;98382.16;;;16.80;94.05
41102;BME280;26845;50.190;19.178;2023-06-10T01:40:30;98381.11;;;16.79;94.02
41102;BME280;26845;50.190;19.178;2023-06-10T01:43:17;98383.27;;;16.79;94.01
41102;BME280;26845;50.190;19.178;2023-06-10T01:46:11;98383.04;;;16.80;94.04
41102;BME280;26845;50.190;19.178;2023-06-10T01:48:53;98387.13;;;16.80;93.95
41102;BME280;26845;50.190;19.178;2023-06-10T01:51:39;98394.37;;;16.78;93.84
41102;BME280;26845;50.190;19.178;2023-06-10T01:54:45;98394.77;;;16.75;93.95
41102;BME280;26845;50.190;19.178;2023-06-10T01:57:31;98398.40;;;16.73;93.90
41102;BME280;26845;50.190;19.178;2023-06-10T01:59:59;98398.36;;;16.71;94.02
41102;BME280;26845;50.190;19.178;2023-06-10T02:02:40;98398.05;;;16.72;94.33
41102;BME280;26845;50.190;19.178;2023-06-10T02:05:46;98396.02;;;16.74;94.18
41102;BME280;26845;50.190;19.178;2023-06-10T02:08:19;98398.42;;;16.74;94.27
41102;BME280;26845;50.190;19.178;2023-06-10T02:11:24;98400.59;;;16.79;94.56
41102;BME280;26845;50.190;19.178;2023-06-10T02:14:11;98395.59;;;16.82;94.43
41102;BME280;26845;50.190;19.178;2023-06-10T02:17:17;98396.16;;;16.83;94.35
41102;BME280;26845;50.190;19.178;2023-06-10T02:19:56;98392.84;;;16.81;94.36
41102;BME280;26845;50.190;19.178;2023-06-10T02:22:42;98390.28;;;16.82;94.41
41102;BME280;26845;50.190;19.178;2023-06-10T02:25:48;98390.27;;;16.81;94.28
41102;BME280;26845;50.190;19.178;2023-06-10T02:28:43;98392.85;;;16.78;94.26
41102;BME280;26845;50.190;19.178;2023-06-10T02:31:48;98390.20;;;16.77;94.22
41102;BME280;26845;50.190;19.178;2023-06-10T02:34:54;98386.86;;;16.76;94.23
41102;BME280;26845;50.190;19.178;2023-06-10T02:37:56;98389.05;;;16.76;94.30
41102;BME280;26845;50.190;19.178;2023-06-10T02:40:30;98386.84;;;16.75;94.13
41102;BME280;26845;50.190;19.178;2023-06-10T02:43:19;98391.89;;;16.72;94.06
41102;BME280;26845;50.190;19.178;2023-06-10T02:46:24;98393.65;;;16.68;94.13
41102;BME280;26845;50.190;19.178;2023-06-10T02:49:12;98395.98;;;16.68;94.23
41102;BME280;26845;50.190;19.178;2023-06-10T02:51:46;98403.86;;;16.70;94.36
41102;BME280;26845;50.190;19.178;2023-06-10T02:54:33;98404.79;;;16.71;94.44
41102;BME280;26845;50.190;19.178;2023-06-10T02:57:01;98408.14;;;16.75;94.57
41102;BME280;26845;50.190;19.178;2023-06-10T02:59:35;98410.71;;;16.72;94.33
41102;BME280;26845;50.190;19.178;2023-06-10T03:02:29;98413.09;;;16.67;94.44
41102;BME280;26845;50.190;19.178;2023-06-10T03:05:18;98408.95;;;16.68;94.78
41102;BME280;26845;50.190;19.178;2023-06-10T03:08:10;98410.98;;;16.75;94.98
41102;BME280;26845;50.190;19.178;2023-06-10T03:10:57;98409.35;;;16.81;95.05
41102;BME280;26845;50.190;19.178;2023-06-10T03:13:23;98406.57;;;16.86;95.12
41102;BME280;26845;50.190;19.178;2023-06-10T03:16:09;98408.70;;;16.91;95.00
41102;BME280;26845;50.190;19.178;2023-06-10T03:18:58;98406.63;;;16.92;94.76
41102;BME280;26845;50.190;19.178;2023-06-10T03:21:44;98406.94;;;16.84;94.52
41102;BME280;26845;50.190;19.178;2023-06-10T03:24:24;98408.84;;;16.83;94.78
41102;BME280;26845;50.190;19.178;2023-06-10T03:27:30;98411.27;;;16.84;94.83
41102;BME280;26845;50.190;19.178;2023-06-10T03:30:20;98412.50;;;16.85;94.90
41102;BME280;26845;50.190;19.178;2023-06-10T03:32:50;98414.27;;;16.85;94.90
41102;BME280;26845;50.190;19.178;2023-06-10T03:35:17;98417.83;;;16.87;95.02
41102;BME280;26845;50.190;19.178;2023-06-10T03:38:03;98422.55;;;16.91;95.09
41102;BME280;26845;50.190;19.178;2023-06-10T03:40:52;98427.48;;;16.93;95.10
41102;BME280;26845;50.190;19.178;2023-06-10T03:43:58;98428.86;;;16.97;95.16
41102;BME280;26845;50.190;19.178;2023-06-10T03:46:57;98430.29;;;16.92;94.82
41102;BME280;26845;50.190;19.178;2023-06-10T03:49:27;98431.83;;;16.86;94.96
41102;BME280;26845;50.190;19.178;2023-06-10T03:52:30;98434.85;;;16.85;95.09
41102;BME280;26845;50.190;19.178;2023-06-10T03:55:19;98439.42;;;16.81;95.30
41102;BME280;26845;50.190;19.178;2023-06-10T03:58:24;98438.39;;;16.85;95.58
41102;BME280;26845;50.190;19.178;2023-06-10T04:01:12;98438.88;;;16.85;95.48
41102;BME280;26845;50.190;19.178;2023-06-10T04:03:40;98438.33;;;16.82;95.39
41102;BME280;26845;50.190;19.178;2023-06-10T04:06:08;98440.83;;;16.76;95.40
41102;BME280;26845;50.190;19.178;2023-06-10T04:09:02;98437.42;;;16.75;95.71
41102;BME280;26845;50.190;19.178;2023-06-10T04:11:32;98437.99;;;16.72;95.75
41102;BME280;26845;50.190;19.178;2023-06-10T04:14:02;98440.88;;;16.69;95.82
41102;BME280;26845;50.190;19.178;2023-06-10T04:16:50;98442.21;;;16.67;96.06
41102;BME280;26845;50.190;19.178;2023-06-10T04:19:16;98441.88;;;16.66;96.16
41102;BME280;26845;50.190;19.178;2023-06-10T04:22:01;98442.73;;;16.66;96.31
41102;BME280;26845;50.190;19.178;2023-06-10T04:24:52;98444.77;;;16.60;96.38
41102;BME280;26845;50.190;19.178;2023-06-10T04:27:39;98446.15;;;16.54;96.40
41102;BME280;26845;50.190;19.178;2023-06-10T04:30:45;98447.40;;;16.53;96.66
41102;BME280;26845;50.190;19.178;2023-06-10T04:33:35;98448.41;;;16.51;96.69
41102;BME280;26845;50.190;19.178;2023-06-10T04:36:21;98448.71;;;16.47;96.55
41102;BME280;26845;50.190;19.178;2023-06-10T04:39:14;98450.63;;;16.44;96.67
41102;BME280;26845;50.190;19.178;2023-06-10T04:42:19;98448.80;;;16.39;96.75
41102;BME280;26845;50.190;19.178;2023-06-10T04:45:05;98448.86;;;16.39;96.94
41102;BME280;26845;50.190;19.178;2023-06-10T04:48:11;98448.41;;;16.34;97.13
41102;BME280;26845;50.190;19.178;2023-06-10T04:50:59;98444.23;;;16.30;97.19
41102;BME280;26845;50.190;19.178;2023-06-10T04:54:06;98447.04;;;16.30;97.32
41102;BME280;26845;50.190;19.178;2023-06-10T04:57:11;98453.93;;;16.34;97.60
41102;BME280;26845;50.190;19.178;2023-06-10T05:00:17;98456.17;;;16.37;97.61
41102;BME280;26845;50.190;19.178;2023-06-10T05:03:05;98457.25;;;16.38;97.64
41102;BME280;26845;50.190;19.178;2023-06-10T05:06:11;98460.17;;;16.39;97.71
41102;BME280;26845;50.190;19.178;2023-06-10T05:09:14;98460.99;;;16.44;97.93
41102;BME280;26845;50.190;19.178;2023-06-10T05:12:00;98456.22;;;16.46;98.24
41102;BME280;26845;50.190;19.178;2023-06-10T05:14:31;98459.98;;;16.46;98.10
41102;BME280;26845;50.190;19.178;2023-06-10T05:17:03;98459.61;;;16.47;98.66
41102;BME280;26845;50.190;19.178;2023-06-10T05:20:09;98462.58;;;16.44;98.39
41102;BME280;26845;50.190;19.178;2023-06-10T05:22:53;98464.63;;;16.42;98.39
41102;BME280;26845;50.190;19.178;2023-06-10T05:25:28;98463.59;;;16.42;98.63
41102;BME280;26845;50.190;19.178;2023-06-10T05:28:01;98464.30;;;16.42;98.67
41102;BME280;26845;50.190;19.178;2023-06-10T05:30:34;98468.42;;;16.43;98.84
41102;BME280;26845;50.190;19.178;2023-06-10T05:33:08;98468.00;;;16.46;98.66
41102;BME280;26845;50.190;19.178;2023-06-10T05:35:42;98469.70;;;16.49;98.70
41102;BME280;26845;50.190;19.178;2023-06-10T05:38:16;98467.06;;;16.53;99.05
41102;BME280;26845;50.190;19.178;2023-06-10T05:40:49;98467.84;;;16.55;99.33
41102;BME280;26845;50.190;19.178;2023-06-10T05:43:23;98467.56;;;16.57;99.02
41102;BME280;26845;50.190;19.178;2023-06-10T05:46:29;98471.64;;;16.64;99.31
41102;BME280;26845;50.190;19.178;2023-06-10T05:49:11;98473.42;;;16.69;99.26
41102;BME280;26845;50.190;19.178;2023-06-10T05:51:45;98475.05;;;16.73;99.28
41102;BME280;26845;50.190;19.178;2023-06-10T05:54:19;98477.37;;;16.78;99.40
41102;BME280;26845;50.190;19.178;2023-06-10T05:56:52;98478.23;;;16.82;99.38
41102;BME280;26845;50.190;19.178;2023-06-10T05:59:26;98481.27;;;16.81;99.06
41102;BME280;26845;50.190;19.178;2023-06-10T06:02:25;98481.93;;;16.85;99.19
41102;BME280;26845;50.190;19.178;2023-06-10T06:05:32;98487.00;;;16.90;99.25
41102;BME280;26845;50.190;19.178;2023-06-10T06:08:38;98485.95;;;16.89;99.13
41102;BME280;26845;50.190;19.178;2023-06-10T06:11:43;98482.84;;;16.87;99.03
41102;BME280;26845;50.190;19.178;2023-06-10T06:14:49;98489.19;;;16.87;99.04
41102;BME280;26845;50.190;19.178;2023-06-10T06:17:55;98486.73;;;16.89;99.09
41102;BME280;26845;50.190;19.178;2023-06-10T06:21:07;98487.95;;;16.89;98.90
41102;BME280;26845;50.190;19.178;2023-06-10T06:24:16;98488.95;;;16.87;98.93
41102;BME280;26845;50.190;19.178;2023-06-10T06:26:58;98491.96;;;16.89;99.27
41102;BME280;26845;50.190;19.178;2023-06-10T06:29:32;98496.36;;;16.92;99.43
41102;BME280;26845;50.190;19.178;2023-06-10T06:32:06;98496.08;;;16.97;99.36
41102;BME280;26845;50.190;19.178;2023-06-10T06:34:40;98504.86;;;17.06;99.43
41102;BME280;26845;50.190;19.178;2023-06-10T06:37:13;98508.23;;;17.06;99.09
41102;BME280;26845;50.190;19.178;2023-06-10T06:39:47;98516.17;;;17.07;99.14
41102;BME280;26845;50.190;19.178;2023-06-10T06:42:21;98518.30;;;17.08;99.09
41102;BME280;26845;50.190;19.178;2023-06-10T06:44:54;98520.14;;;17.11;99.03
41102;BME280;26845;50.190;19.178;2023-06-10T06:47:28;98527.37;;;17.09;98.88
41102;BME280;26845;50.190;19.178;2023-06-10T06:50:02;98528.08;;;17.08;99.17
41102;BME280;26845;50.190;19.178;2023-06-10T06:52:35;98530.53;;;17.14;99.27
41102;BME280;26845;50.190;19.178;2023-06-10T06:55:09;98532.59;;;17.20;99.20
41102;BME280;26845;50.190;19.178;2023-06-10T06:57:43;98536.77;;;17.20;99.11
41102;BME280;26845;50.190;19.178;2023-06-10T07:00:17;98538.73;;;17.21;99.03
41102;BME280;26845;50.190;19.178;2023-06-10T07:02:50;98537.73;;;17.20;98.92
41102;BME280;26845;50.190;19.178;2023-06-10T07:05:24;98538.00;;;17.21;99.01
41102;BME280;26845;50.190;19.178;2023-06-10T07:07:57;98541.29;;;17.25;99.00
41102;BME280;26845;50.190;19.178;2023-06-10T07:10:35;98541.39;;;17.26;98.88
41102;BME280;26845;50.190;19.178;2023-06-10T07:13:09;98543.77;;;17.28;99.01
41102;BME280;26845;50.190;19.178;2023-06-10T07:15:43;98546.64;;;17.30;98.90
41102;BME280;26845;50.190;19.178;2023-06-10T07:18:17;98549.20;;;17.27;98.81
41102;BME280;26845;50.190;19.178;2023-06-10T07:20:50;98548.21;;;17.26;98.91
41102;BME280;26845;50.190;19.178;2023-06-10T07:23:41;98549.66;;;17.26;98.91
41102;BME280;26845;50.190;19.178;2023-06-10T07:26:10;98549.61;;;17.27;99.03
41102;BME280;26845;50.190;19.178;2023-06-10T07:28:45;98549.23;;;17.36;99.41
41102;BME280;26845;50.190;19.178;2023-06-10T07:31:19;98551.09;;;17.44;99.21
41102;BME280;26845;50.190;19.178;2023-06-10T07:33:46;98551.08;;;17.51;99.19
41102;BME280;26845;50.190;19.178;2023-06-10T07:36:12;98549.87;;;17.55;99.06
41102;BME280;26845;50.190;19.178;2023-06-10T07:39:17;98555.44;;;17.67;99.33
41102;BME280;26845;50.190;19.178;2023-06-10T07:41:44;98550.83;;;17.77;99.12
41102;BME280;26845;50.190;19.178;2023-06-10T07:44:13;98551.83;;;17.83;98.77
41102;BME280;26845;50.190;19.178;2023-06-10T07:46:47;98551.84;;;17.91;98.90
41102;BME280;26845;50.190;19.178;2023-06-10T07:49:13;98548.52;;;18.03;98.76
41102;BME280;26845;50.190;19.178;2023-06-10T07:51:47;98548.86;;;18.16;98.96
41102;BME280;26845;50.190;19.178;2023-06-10T07:54:33;98546.77;;;18.34;99.12
41102;BME280;26845;50.190;19.178;2023-06-10T07:57:21;98548.02;;;18.56;99.51
41102;BME280;26845;50.190;19.178;2023-06-10T07:59:49;98547.29;;;18.93;100.00
41102;BME280;26845;50.190;19.178;2023-06-10T08:02:16;98542.13;;;19.20;99.92
41102;BME280;26845;50.190;19.178;2023-06-10T08:04:42;98544.05;;;19.49;99.90
41102;BME280;26845;50.190;19.178;2023-06-10T08:07:08;98542.73;;;19.77;99.35
41102;BME280;26845;50.190;19.178;2023-06-10T08:09:34;98543.34;;;19.94;99.14
41102;BME280;26845;50.190;19.178;2023-06-10T08:12:00;98541.36;;;20.21;99.70
41102;BME280;26845;50.190;19.178;2023-06-10T08:14:27;98541.41;;;20.44;97.70
41102;BME280;26845;50.190;19.178;2023-06-10T08:16:53;98542.54;;;20.58;97.01
41102;BME280;26845;50.190;19.178;2023-06-10T08:19:19;98542.64;;;20.69;96.96
41102;BME280;26845;50.190;19.178;2023-06-10T08:21:45;98538.52;;;20.80;96.23
41102;BME280;26845;50.190;19.178;2023-06-10T08:24:13;98540.58;;;20.97;96.76
41102;BME280;26845;50.190;19.178;2023-06-10T08:26:41;98542.94;;;21.11;94.60
41102;BME280;26845;50.190;19.178;2023-06-10T08:29:08;98540.89;;;21.20;93.11
41102;BME280;26845;50.190;19.178;2023-06-10T08:31:34;98540.25;;;21.32;93.72
41102;BME280;26845;50.190;19.178;2023-06-10T08:34:00;98538.39;;;21.60;95.01
41102;BME280;26845;50.190;19.178;2023-06-10T08:36:26;98541.30;;;21.78;93.45
41102;BME280;26845;50.190;19.178;2023-06-10T08:38:53;98544.40;;;21.89;92.54
41102;BME280;26845;50.190;19.178;2023-06-10T08:41:19;98549.73;;;21.88;89.08
41102;BME280;26845;50.190;19.178;2023-06-10T08:46:33;98550.48;;;21.54;88.20
41102;BME280;26845;50.190;19.178;2023-06-10T08:49:00;98551.82;;;21.46;88.82
41102;BME280;26845;50.190;19.178;2023-06-10T08:51:27;98553.92;;;21.49;89.09
41102;BME280;26845;50.190;19.178;2023-06-10T08:53:56;98556.01;;;21.61;89.02
41102;BME280;26845;50.190;19.178;2023-06-10T08:56:25;98554.04;;;21.72;88.70
41102;BME280;26845;50.190;19.178;2023-06-10T08:58:51;98551.23;;;21.78;88.51
41102;BME280;26845;50.190;19.178;2023-06-10T09:01:18;98553.20;;;21.84;88.31
41102;BME280;26845;50.190;19.178;2023-06-10T09:03:44;98553.84;;;21.80;87.83
41102;BME280;26845;50.190;19.178;2023-06-10T09:06:10;98555.43;;;21.76;87.65
41102;BME280;26845;50.190;19.178;2023-06-10T09:08:36;98557.66;;;21.66;87.60
41102;BME280;26845;50.190;19.178;2023-06-10T09:11:02;98559.65;;;21.61;88.36
41102;BME280;26845;50.190;19.178;2023-06-10T09:13:29;98561.41;;;21.59;87.89
41102;BME280;26845;50.190;19.178;2023-06-10T09:15:55;98563.67;;;21.59;87.99
41102;BME280;26845;50.190;19.178;2023-06-10T09:18:26;98563.27;;;21.57;87.76
41102;BME280;26845;50.190;19.178;2023-06-10T09:20:54;98563.44;;;21.61;88.28
41102;BME280;26845;50.190;19.178;2023-06-10T09:23:20;98567.22;;;21.73;88.79
41102;BME280;26845;50.190;19.178;2023-06-10T09:25:46;98561.62;;;21.90;89.13
41102;BME280;26845;50.190;19.178;2023-06-10T09:28:20;98567.83;;;22.07;88.82
41102;BME280;26845;50.190;19.178;2023-06-10T09:30:47;98563.71;;;22.09;88.38
41102;BME280;26845;50.190;19.178;2023-06-10T09:33:14;98559.56;;;22.26;89.42
41102;BME280;26845;50.190;19.178;2023-06-10T09:35:47;98565.27;;;22.53;89.28
41102;BME280;26845;50.190;19.178;2023-06-10T09:38:19;98570.45;;;22.53;87.81
41102;BME280;26845;50.190;19.178;2023-06-10T09:41:20;98567.77;;;22.37;88.04
41102;BME280;26845;50.190;19.178;2023-06-10T09:43:47;98563.05;;;22.26;87.84
41102;BME280;26845;50.190;19.178;2023-06-10T09:46:17;98565.42;;;22.16;87.94
41102;BME280;26845;50.190;19.178;2023-06-10T09:48:45;98570.48;;;22.07;88.01
41102;BME280;26845;50.190;19.178;2023-06-10T09:51:13;98580.48;;;21.97;88.13
41102;BME280;26845;50.190;19.178;2023-06-10T09:53:39;98578.09;;;21.84;88.40
41102;BME280;26845;50.190;19.178;2023-06-10T09:56:15;98571.65;;;21.70;88.29
41102;BME280;26845;50.190;19.178;2023-06-10T09:59:04;98572.65;;;21.46;88.48
41102;BME280;26845;50.190;19.178;2023-06-10T10:01:31;98571.23;;;21.40;89.12
41102;BME280;26845;50.190;19.178;2023-06-10T10:03:58;98569.73;;;21.42;89.55
41102;BME280;26845;50.190;19.178;2023-06-10T10:06:26;98570.55;;;21.47;89.80
41102;BME280;26845;50.190;19.178;2023-06-10T10:08:52;98568.16;;;21.51;89.50
41102;BME280;26845;50.190;19.178;2023-06-10T10:11:20;98571.21;;;21.48;89.10
41102;BME280;26845;50.190;19.178;2023-06-10T10:13:49;98568.32;;;21.39;88.23
41102;BME280;26845;50.190;19.178;2023-06-10T10:16:26;98570.90;;;21.27;88.49
41102;BME280;26845;50.190;19.178;2023-06-10T10:19:15;98565.16;;;21.15;88.57
41102;BME280;26845;50.190;19.178;2023-06-10T10:21:43;98566.94;;;21.13;89.01
41102;BME280;26845;50.190;19.178;2023-06-10T10:24:18;98564.14;;;21.06;88.58
41102;BME280;26845;50.190;19.178;2023-06-10T10:26:46;98565.14;;;20.99;88.82
41102;BME280;26845;50.190;19.178;2023-06-10T10:29:22;98563.73;;;20.95;89.04
41102;BME280;26845;50.190;19.178;2023-06-10T10:31:53;98557.48;;;21.01;89.19
41102;BME280;26845;50.190;19.178;2023-06-10T10:34:35;98560.02;;;20.93;88.36
41102;BME280;26845;50.190;19.178;2023-06-10T10:37:04;98563.70;;;20.89;88.35
41102;BME280;26845;50.190;19.178;2023-06-10T10:39:50;98564.95;;;20.85;88.11
41102;BME280;26845;50.190;19.178;2023-06-10T10:42:36;98568.06;;;20.80;87.88
41102;BME280;26845;50.190;19.178;2023-06-10T10:45:05;98567.58;;;20.79;88.43
41102;BME280;26845;50.190;19.178;2023-06-10T10:47:38;98570.66;;;20.94;89.22
41102;BME280;26845;50.190;19.178;2023-06-10T10:50:30;98568.52;;;21.11;89.06
41102;BME280;26845;50.190;19.178;2023-06-10T10:53:19;98565.98;;;21.50;90.08
41102;BME280;26845;50.190;19.178;2023-06-10T10:56:02;98563.01;;;21.93;90.29
41102;BME280;26845;50.190;19.178;2023-06-10T10:58:32;98562.91;;;22.37;89.26
41102;BME280;26845;50.190;19.178;2023-06-10T11:00:58;98557.05;;;22.80;89.23
41102;BME280;26845;50.190;19.178;2023-06-10T11:03:27;98558.02;;;23.14;87.40
41102;BME280;26845;50.190;19.178;2023-06-10T11:05:53;98556.92;;;23.32;84.32
41102;BME280;26845;50.190;19.178;2023-06-10T11:10:56;98560.21;;;22.97;81.55
41102;BME280;26845;50.190;19.178;2023-06-10T11:13:23;98558.91;;;22.86;82.01
41102;BME280;26845;50.190;19.178;2023-06-10T11:15:51;98559.95;;;22.90;81.62
41102;BME280;26845;50.190;19.178;2023-06-10T11:18:26;98561.75;;;22.97;79.59
41102;BME280;26845;50.190;19.178;2023-06-10T11:20:53;98563.12;;;22.95;79.22
41102;BME280;26845;50.190;19.178;2023-06-10T11:23:26;98563.53;;;22.96;77.93
41102;BME280;26845;50.190;19.178;2023-06-10T11:26:14;98563.58;;;22.92;78.80
41102;BME280;26845;50.190;19.178;2023-06-10T11:28:41;98560.45;;;23.07;80.55
41102;BME280;26845;50.190;19.178;2023-06-10T11:31:07;98555.25;;;23.21;79.22
41102;BME280;26845;50.190;19.178;2023-06-10T11:33:33;98555.98;;;23.21;78.40
41102;BME280;26845;50.190;19.178;2023-06-10T11:35:59;98547.98;;;23.40;79.29
41102;BME280;26845;50.190;19.178;2023-06-10T11:38:25;98549.95;;;23.62;78.28
41102;BME280;26845;50.190;19.178;2023-06-10T11:40:55;98550.91;;;23.62;76.43
41102;BME280;26845;50.190;19.178;2023-06-10T11:43:29;98550.35;;;23.71;77.78
41102;BME280;26845;50.190;19.178;2023-06-10T11:46:13;98546.45;;;23.89;77.47
41102;BME280;26845;50.190;19.178;2023-06-10T11:48:39;98551.14;;;23.97;75.78
41102;BME280;26845;50.190;19.178;2023-06-10T11:51:15;98550.14;;;24.00;76.41
41102;BME280;26845;50.190;19.178;2023-06-10T11:53:49;98549.73;;;24.17;75.99
41102;BME280;26845;50.190;19.178;2023-06-10T11:56:23;98554.26;;;24.31;76.06
41102;BME280;26845;50.190;19.178;2023-06-10T11:58:57;98554.08;;;24.35;72.58
41102;BME280;26845;50.190;19.178;2023-06-10T12:01:30;98552.41;;;24.29;74.33
41102;BME280;26845;50.190;19.178;2023-06-10T12:04:04;98549.83;;;24.42;73.38
41102;BME280;26845;50.190;19.178;2023-06-10T12:06:50;98546.30;;;24.48;73.35
41102;BME280;26845;50.190;19.178;2023-06-10T12:09:23;98552.54;;;24.50;72.77
41102;BME280;26845;50.190;19.178;2023-06-10T12:20:24;98551.79;;;24.53;70.57
41102;BME280;26845;50.190;19.178;2023-06-10T12:23:10;98551.09;;;24.48;70.39
41102;BME280;26845;50.190;19.178;2023-06-10T12:25:50;98549.91;;;24.66;70.65
41102;BME280;26845;50.190;19.178;2023-06-10T12:28:30;98549.96;;;24.59;70.85
41102;BME280;26845;50.190;19.178;2023-06-10T12:31:10;98546.80;;;24.68;70.44
41102;BME280;26845;50.190;19.178;2023-06-10T12:33:48;98546.30;;;24.90;69.42
41102;BME280;26845;50.190;19.178;2023-06-10T12:36:16;98538.52;;;24.96;67.65
41102;BME280;26845;50.190;19.178;2023-06-10T12:39:03;98538.48;;;25.00;67.66
41102;BME280;26845;50.190;19.178;2023-06-10T12:41:31;98530.45;;;25.08;67.17
41102;BME280;26845;50.190;19.178;2023-06-10T12:43:59;98540.05;;;25.18;66.97
41102;BME280;26845;50.190;19.178;2023-06-10T12:46:53;98538.39;;;25.30;66.94
41102;BME280;26845;50.190;19.178;2023-06-10T12:49:34;98535.36;;;25.53;66.54
41102;BME280;26845;50.190;19.178;2023-06-10T12:52:00;98534.09;;;25.57;66.24
41102;BME280;26845;50.190;19.178;2023-06-10T12:54:26;98532.34;;;25.55;66.04
41102;BME280;26845;50.190;19.178;2023-06-10T12:56:52;98531.61;;;25.75;67.75
41102;BME280;26845;50.190;19.178;2023-06-10T12:59:19;98532.55;;;25.93;66.82
41102;BME280;26845;50.190;19.178;2023-06-10T13:01:51;98536.71;;;26.03;66.70
41102;BME280;26845;50.190;19.178;2023-06-10T13:04:57;98532.98;;;26.20;64.28
41102;BME280;26845;50.190;19.178;2023-06-10T13:07:23;98537.48;;;26.13;64.35
41102;BME280;26845;50.190;19.178;2023-06-10T13:09:49;98537.01;;;26.00;63.11
41102;BME280;26845;50.190;19.178;2023-06-10T13:12:15;98531.80;;;25.65;61.65
41102;BME280;26845;50.190;19.178;2023-06-10T13:14:49;98531.86;;;25.54;64.50
41102;BME280;26845;50.190;19.178;2023-06-10T13:17:23;98527.78;;;25.68;63.59
41102;BME280;26845;50.190;19.178;2023-06-10T13:19:56;98531.95;;;25.46;62.83
41102;BME280;26845;50.190;19.178;2023-06-10T13:22:30;98524.74;;;25.43;63.96
41102;BME280;26845;50.190;19.178;2023-06-10T13:25:04;98527.22;;;25.48;63.81
41102;BME280;26845;50.190;19.178;2023-06-10T13:27:37;98524.38;;;25.61;64.24
41102;BME280;26845;50.190;19.178;2023-06-10T13:30:07;98519.76;;;25.67;62.65
41102;BME280;26845;50.190;19.178;2023-06-10T13:32:55;98522.33;;;25.57;61.56
41102;BME280;26845;50.190;19.178;2023-06-10T13:35:21;98518.52;;;25.54;62.86
41102;BME280;26845;50.190;19.178;2023-06-10T13:37:47;98520.30;;;25.55;63.17
41102;BME280;26845;50.190;19.178;2023-06-10T13:40:15;98521.70;;;25.46;61.60
41102;BME280;26845;50.190;19.178;2023-06-10T13:42:42;98522.34;;;25.33;61.87
41102;BME280;26845;50.190;19.178;2023-06-10T13:45:09;98531.94;;;25.24;61.67
41102;BME280;26845;50.190;19.178;2023-06-10T13:47:36;98527.59;;;25.10;61.70
41102;BME280;26845;50.190;19.178;2023-06-10T13:50:02;98526.77;;;24.94;61.43
41102;BME280;26845;50.190;19.178;2023-06-10T13:52:28;98524.90;;;24.94;61.94
41102;BME280;26845;50.190;19.178;2023-06-10T13:54:54;98521.02;;;25.11;62.44
41102;BME280;26845;50.190;19.178;2023-06-10T13:57:21;98519.25;;;25.33;62.75
41102;BME280;26845;50.190;19.178;2023-06-10T13:59:47;98519.57;;;25.48;62.54
41102;BME280;26845;50.190;19.178;2023-06-10T14:02:13;98517.66;;;25.59;62.49
41102;BME280;26845;50.190;19.178;2023-06-10T14:04:39;98512.72;;;25.64;61.29
41102;BME280;26845;50.190;19.178;2023-06-10T14:07:06;98512.29;;;25.59;61.47
41102;BME280;26845;50.190;19.178;2023-06-10T14:09:32;98516.41;;;25.41;60.98
41102;BME280;26845;50.190;19.178;2023-06-10T14:11:58;98517.24;;;25.38;62.13